sensor_id;sensor_type;location;lat;lon;timestamp;P1;durP1;ratioP1;P2;durP2;ratioP2
61200;SDS011;47065;52.898;6.992;2023-06-10T00:01:32;8.63;;;5.45;;
61200;SDS011;47065;52.898;6.992;2023-06-10T00:04:01;7.47;;;3.85;;
61200;SDS011;47065;52.898;6.992;2023-06-10T00:06:28;9.00;;;4.65;;
61200;SDS011;47065;52.898;6.992;2023-06-10T00:09:04;9.48;;;4.93;;
61200;SDS011;47065;52.898;6.992;2023-06-10T00:11:31;6.70;;;4.43;;
61200;SDS011;47065;52.898;6.992;2023-06-10T00:13:57;5.72;;;4.45;;
61200;SDS011;47065;52.898;6.992;2023-06-10T00:16:23;11.85;;;4.50;;
61200;SDS011;47065;52.898;6.992;2023-06-10T00:18:50;7.70;;;4.50;;
61200;SDS011;47065;52.898;6.992;2023-06-10T00:21:21;5.72;;;4.32;;
61200;SDS011;47065;52.898;6.992;2023-06-10T00:23:47;6.85;;;4.22;;
61200;SDS011;47065;52.898;6.992;2023-06-10T00:26:13;7.40;;;5.10;;
61200;SDS011;47065;52.898;6.992;2023-06-10T00:28:39;7.75;;;4.75;;
61200;SDS011;47065;52.898;6.992;2023-06-10T00:31:04;7.88;;;4.10;;
61200;SDS011;47065;52.898;6.992;2023-06-10T00:33:30;6.70;;;4.63;;
61200;SDS011;47065;52.898;6.992;2023-06-10T00:35:56;7.10;;;4.60;;
61200;SDS011;47065;52.898;6.992;2023-06-10T00:38:22;8.50;;;5.18;;
61200;SDS011;47065;52.898;6.992;2023-06-10T00:40:48;8.73;;;4.50;;
61200;SDS011;47065;52.898;6.992;2023-06-10T00:43:14;7.88;;;5.18;;
61200;SDS011;47065;52.898;6.992;2023-06-10T00:45:40;10.27;;;4.90;;
61200;SDS011;47065;52.898;6.992;2023-06-10T00:48:05;9.35;;;5.30;;
61200;SDS011;47065;52.898;6.992;2023-06-10T00:50:31;9.25;;;5.43;;
61200;SDS011;47065;52.898;6.992;2023-06-10T00:52:58;8.57;;;5.55;;
61200;SDS011;47065;52.898;6.992;2023-06-10T00:55:24;12.48;;;5.65;;
61200;SDS011;47065;52.898;6.992;2023-06-10T00:57:52;11.43;;;5.78;;
61200;SDS011;47065;52.898;6.992;2023-06-10T01:00:18;9.95;;;5.15;;
61200;SDS011;47065;52.898;6.992;2023-06-10T01:02:45;10.90;;;5.63;;
61200;SDS011;47065;52.898;6.992;2023-06-10T01:05:11;10.52;;;4.78;;
61200;SDS011;47065;52.898;6.992;2023-06-10T01:07:47;7.47;;;4.68;;
61200;SDS011;47065;52.898;6.992;2023-06-10T01:10:32;9.00;;;5.18;;
61200;SDS011;47065;52.898;6.992;2023-06-10T01:13:10;10.45;;;5.07;;
61200;SDS011;47065;52.898;6.992;2023-06-10T01:15:37;10.90;;;5.25;;
61200;SDS011;47065;52.898;6.992;2023-06-10T01:18:04;9.73;;;5.63;;
61200;SDS011;47065;52.898;6.992;2023-06-10T01:20:35;9.13;;;5.25;;
61200;SDS011;47065;52.898;6.992;2023-06-10T01:23:05;11.27;;;5.10;;
61200;SDS011;47065;52.898;6.992;2023-06-10T01:25:31;5.93;;;4.43;;
61200;SDS011;47065;52.898;6.992;2023-06-10T01:30:27;10.15;;;5.82;;
61200;SDS011;47065;52.898;6.992;2023-06-10T01:32:55;11.10;;;4.55;;
61200;SDS011;47065;52.898;6.992;2023-06-10T01:35:25;5.35;;;4.72;;
61200;SDS011;47065;52.898;6.992;2023-06-10T01:37:53;10.50;;;5.32;;
61200;SDS011;47065;52.898;6.992;2023-06-10T01:40:21;7.30;;;5.35;;
61200;SDS011;47065;52.898;6.992;2023-06-10T01:42:48;9.10;;;5.35;;
61200;SDS011;47065;52.898;6.992;2023-06-10T01:45:13;6.15;;;4.55;;
61200;SDS011;47065;52.898;6.992;2023-06-10T01:47:39;7.53;;;5.38;;
61200;SDS011;47065;52.898;6.992;2023-06-10T01:50:05;8.95;;;4.70;;
61200;SDS011;47065;52.898;6.992;2023-06-10T01:52:31;8.57;;;4.60;;
61200;SDS011;47065;52.898;6.992;2023-06-10T01:54:57;7.10;;;4.75;;
61200;SDS011;47065;52.898;6.992;2023-06-10T01:57:22;8.75;;;5.35;;
61200;SDS011;47065;52.898;6.992;2023-06-10T01:59:48;10.57;;;5.15;;
61200;SDS011;47065;52.898;6.992;2023-06-10T02:02:14;10.07;;;4.65;;
61200;SDS011;47065;52.898;6.992;2023-06-10T02:04:39;10.15;;;5.35;;
61200;SDS011;47065;52.898;6.992;2023-06-10T02:07:05;10.73;;;5.28;;
61200;SDS011;47065;52.898;6.992;2023-06-10T02:09:31;9.55;;;5.30;;
61200;SDS011;47065;52.898;6.992;2023-06-10T02:11:59;9.07;;;4.30;;
61200;SDS011;47065;52.898;6.992;2023-06-10T02:14:27;8.00;;;4.50;;
61200;SDS011;47065;52.898;6.992;2023-06-10T02:16:52;9.35;;;5.60;;
61200;SDS011;47065;52.898;6.992;2023-06-10T02:19:21;7.68;;;4.53;;
61200;SDS011;47065;52.898;6.992;2023-06-10T02:21:47;9.52;;;5.50;;
61200;SDS011;47065;52.898;6.992;2023-06-10T02:24:13;8.52;;;4.95;;
61200;SDS011;47065;52.898;6.992;2023-06-10T02:26:39;8.85;;;4.50;;
61200;SDS011;47065;52.898;6.992;2023-06-10T02:29:05;9.70;;;4.93;;
61200;SDS011;47065;52.898;6.992;2023-06-10T02:31:31;7.47;;;4.70;;
61200;SDS011;47065;52.898;6.992;2023-06-10T02:33:56;9.45;;;4.72;;
61200;SDS011;47065;52.898;6.992;2023-06-10T02:36:22;6.32;;;4.25;;
61200;SDS011;47065;52.898;6.992;2023-06-10T02:38:49;7.05;;;4.22;;
61200;SDS011;47065;52.898;6.992;2023-06-10T02:41:15;6.60;;;3.85;;
61200;SDS011;47065;52.898;6.992;2023-06-10T02:43:41;8.10;;;4.68;;
61200;SDS011;47065;52.898;6.992;2023-06-10T02:46:06;8.23;;;4.70;;
61200;SDS011;47065;52.898;6.992;2023-06-10T02:48:38;11.18;;;4.60;;
61200;SDS011;47065;52.898;6.992;2023-06-10T02:51:06;7.43;;;4.57;;
61200;SDS011;47065;52.898;6.992;2023-06-10T02:53:32;7.30;;;4.68;;
61200;SDS011;47065;52.898;6.992;2023-06-10T02:55:58;9.90;;;5.75;;
61200;SDS011;47065;52.898;6.992;2023-06-10T02:58:23;9.65;;;4.72;;
61200;SDS011;47065;52.898;6.992;2023-06-10T03:00:49;11.23;;;5.13;;
61200;SDS011;47065;52.898;6.992;2023-06-10T03:03:15;11.40;;;4.57;;
61200;SDS011;47065;52.898;6.992;2023-06-10T03:05:41;10.43;;;4.55;;
61200;SDS011;47065;52.898;6.992;2023-06-10T03:08:06;14.02;;;5.32;;
61200;SDS011;47065;52.898;6.992;2023-06-10T03:10:32;7.18;;;4.55;;
61200;SDS011;47065;52.898;6.992;2023-06-10T03:12:58;10.75;;;5.70;;
61200;SDS011;47065;52.898;6.992;2023-06-10T03:15:23;11.73;;;4.80;;
61200;SDS011;47065;52.898;6.992;2023-06-10T03:17:49;10.65;;;5.10;;
61200;SDS011;47065;52.898;6.992;2023-06-10T03:20:15;12.25;;;5.15;;
61200;SDS011;47065;52.898;6.992;2023-06-10T03:22:42;11.05;;;5.45;;
61200;SDS011;47065;52.898;6.992;2023-06-10T03:25:08;11.43;;;6.03;;
61200;SDS011;47065;52.898;6.992;2023-06-10T03:27:39;8.02;;;4.70;;
61200;SDS011;47065;52.898;6.992;2023-06-10T03:30:05;10.68;;;5.28;;
61200;SDS011;47065;52.898;6.992;2023-06-10T03:32:31;13.10;;;5.00;;
61200;SDS011;47065;52.898;6.992;2023-06-10T03:34:57;7.57;;;4.40;;
61200;SDS011;47065;52.898;6.992;2023-06-10T03:37:23;11.70;;;5.35;;
61200;SDS011;47065;52.898;6.992;2023-06-10T03:39:50;8.75;;;4.40;;
61200;SDS011;47065;52.898;6.992;2023-06-10T03:42:15;14.18;;;5.50;;
61200;SDS011;47065;52.898;6.992;2023-06-10T03:44:41;12.32;;;4.75;;
61200;SDS011;47065;52.898;6.992;2023-06-10T03:47:06;9.02;;;4.57;;
61200;SDS011;47065;52.898;6.992;2023-06-10T03:49:32;7.45;;;5.28;;
61200;SDS011;47065;52.898;6.992;2023-06-10T03:51:58;11.90;;;5.32;;
61200;SDS011;47065;52.898;6.992;2023-06-10T03:54:24;11.13;;;5.18;;
61200;SDS011;47065;52.898;6.992;2023-06-10T03:56:49;12.13;;;6.20;;
61200;SDS011;47065;52.898;6.992;2023-06-10T03:59:15;13.43;;;5.50;;
61200;SDS011;47065;52.898;6.992;2023-06-10T04:01:41;10.13;;;5.43;;
61200;SDS011;47065;52.898;6.992;2023-06-10T04:04:08;9.20;;;4.97;;
61200;SDS011;47065;52.898;6.992;2023-06-10T04:06:34;10.48;;;5.13;;
61200;SDS011;47065;52.898;6.992;2023-06-10T04:09:00;11.30;;;4.85;;
61200;SDS011;47065;52.898;6.992;2023-06-10T04:11:25;9.13;;;6.07;;
61200;SDS011;47065;52.898;6.992;2023-06-10T04:13:51;15.40;;;6.22;;
61200;SDS011;47065;52.898;6.992;2023-06-10T04:16:17;14.35;;;5.20;;
61200;SDS011;47065;52.898;6.992;2023-06-10T04:18:43;13.00;;;5.65;;
61200;SDS011;47065;52.898;6.992;2023-06-10T04:21:08;11.63;;;5.03;;
61200;SDS011;47065;52.898;6.992;2023-06-10T04:23:35;11.75;;;5.57;;
61200;SDS011;47065;52.898;6.992;2023-06-10T04:26:02;14.85;;;6.18;;
61200;SDS011;47065;52.898;6.992;2023-06-10T04:28:28;9.38;;;5.50;;
61200;SDS011;47065;52.898;6.992;2023-06-10T04:30:53;12.80;;;5.68;;
61200;SDS011;47065;52.898;6.992;2023-06-10T04:33:19;10.43;;;5.53;;
61200;SDS011;47065;52.898;6.992;2023-06-10T04:35:44;12.35;;;5.97;;
61200;SDS011;47065;52.898;6.992;2023-06-10T04:38:12;9.60;;;6.13;;
61200;SDS011;47065;52.898;6.992;2023-06-10T04:40:38;14.48;;;5.82;;
61200;SDS011;47065;52.898;6.992;2023-06-10T04:43:05;9.82;;;6.18;;
61200;SDS011;47065;52.898;6.992;2023-06-10T04:45:30;11.50;;;5.40;;
61200;SDS011;47065;52.898;6.992;2023-06-10T04:47:56;12.38;;;5.88;;
61200;SDS011;47065;52.898;6.992;2023-06-10T04:50:23;9.63;;;5.50;;
61200;SDS011;47065;52.898;6.992;2023-06-10T04:52:49;12.85;;;6.18;;
61200;SDS011;47065;52.898;6.992;2023-06-10T04:55:15;12.98;;;7.15;;
61200;SDS011;47065;52.898;6.992;2023-06-10T04:57:41;14.40;;;5.93;;
61200;SDS011;47065;52.898;6.992;2023-06-10T05:00:06;14.73;;;6.15;;
61200;SDS011;47065;52.898;6.992;2023-06-10T05:02:33;12.40;;;6.18;;
61200;SDS011;47065;52.898;6.992;2023-06-10T05:04:59;12.77;;;6.88;;
61200;SDS011;47065;52.898;6.992;2023-06-10T05:07:25;14.18;;;6.72;;
61200;SDS011;47065;52.898;6.992;2023-06-10T05:09:51;12.32;;;6.20;;
61200;SDS011;47065;52.898;6.992;2023-06-10T05:12:16;9.85;;;5.63;;
61200;SDS011;47065;52.898;6.992;2023-06-10T05:14:42;11.82;;;5.88;;
61200;SDS011;47065;52.898;6.992;2023-06-10T05:17:09;17.02;;;6.53;;
61200;SDS011;47065;52.898;6.992;2023-06-10T05:19:35;9.65;;;6.00;;
61200;SDS011;47065;52.898;6.992;2023-06-10T05:22:02;8.50;;;6.13;;
61200;SDS011;47065;52.898;6.992;2023-06-10T05:24:28;14.98;;;6.55;;
61200;SDS011;47065;52.898;6.992;2023-06-10T05:26:53;18.05;;;8.02;;
61200;SDS011;47065;52.898;6.992;2023-06-10T05:29:19;10.32;;;6.50;;
61200;SDS011;47065;52.898;6.992;2023-06-10T05:31:45;12.05;;;6.20;;
61200;SDS011;47065;52.898;6.992;2023-06-10T05:34:11;12.45;;;6.85;;
61200;SDS011;47065;52.898;6.992;2023-06-10T05:36:36;12.27;;;6.25;;
61200;SDS011;47065;52.898;6.992;2023-06-10T05:39:02;15.40;;;6.63;;
61200;SDS011;47065;52.898;6.992;2023-06-10T05:41:28;7.65;;;5.85;;
61200;SDS011;47065;52.898;6.992;2023-06-10T05:43:53;7.45;;;5.50;;
61200;SDS011;47065;52.898;6.992;2023-06-10T05:46:19;10.73;;;7.00;;
61200;SDS011;47065;52.898;6.992;2023-06-10T05:48:45;9.40;;;6.35;;
61200;SDS011;47065;52.898;6.992;2023-06-10T05:51:14;10.77;;;6.63;;
61200;SDS011;47065;52.898;6.992;2023-06-10T05:53:39;11.90;;;6.22;;
61200;SDS011;47065;52.898;6.992;2023-06-10T05:56:05;16.90;;;6.22;;
61200;SDS011;47065;52.898;6.992;2023-06-10T05:58:31;10.75;;;5.55;;
61200;SDS011;47065;52.898;6.992;2023-06-10T06:00:56;11.07;;;5.95;;
61200;SDS011;47065;52.898;6.992;2023-06-10T06:03:22;9.00;;;5.57;;
61200;SDS011;47065;52.898;6.992;2023-06-10T06:05:48;13.00;;;6.40;;
61200;SDS011;47065;52.898;6.992;2023-06-10T06:08:13;10.75;;;6.10;;
61200;SDS011;47065;52.898;6.992;2023-06-10T06:10:42;10.75;;;5.35;;
61200;SDS011;47065;52.898;6.992;2023-06-10T06:13:08;11.85;;;6.88;;
61200;SDS011;47065;52.898;6.992;2023-06-10T06:15:33;9.65;;;5.25;;
61200;SDS011;47065;52.898;6.992;2023-06-10T06:17:59;8.35;;;5.45;;
61200;SDS011;47065;52.898;6.992;2023-06-10T06:20:25;13.43;;;7.22;;
61200;SDS011;47065;52.898;6.992;2023-06-10T06:22:50;13.85;;;6.60;;
61200;SDS011;47065;52.898;6.992;2023-06-10T06:25:16;17.23;;;7.28;;
61200;SDS011;47065;52.898;6.992;2023-06-10T06:27:41;11.05;;;6.30;;
61200;SDS011;47065;52.898;6.992;2023-06-10T06:30:07;9.38;;;6.57;;
61200;SDS011;47065;52.898;6.992;2023-06-10T06:32:33;14.93;;;7.47;;
61200;SDS011;47065;52.898;6.992;2023-06-10T06:34:59;12.18;;;7.30;;
61200;SDS011;47065;52.898;6.992;2023-06-10T06:37:24;16.90;;;9.07;;
61200;SDS011;47065;52.898;6.992;2023-06-10T06:39:51;17.33;;;7.78;;
61200;SDS011;47065;52.898;6.992;2023-06-10T06:42:18;11.68;;;7.93;;
61200;SDS011;47065;52.898;6.992;2023-06-10T06:44:44;12.90;;;8.30;;
61200;SDS011;47065;52.898;6.992;2023-06-10T06:47:10;13.68;;;9.55;;
61200;SDS011;47065;52.898;6.992;2023-06-10T06:49:36;10.55;;;7.57;;
61200;SDS011;47065;52.898;6.992;2023-06-10T06:52:02;18.67;;;8.90;;
61200;SDS011;47065;52.898;6.992;2023-06-10T06:54:27;18.33;;;10.15;;
61200;SDS011;47065;52.898;6.992;2023-06-10T06:56:54;14.75;;;9.93;;
61200;SDS011;47065;52.898;6.992;2023-06-10T06:59:19;18.58;;;9.80;;
61200;SDS011;47065;52.898;6.992;2023-06-10T07:01:45;17.52;;;10.50;;
61200;SDS011;47065;52.898;6.992;2023-06-10T07:04:12;15.27;;;9.90;;
61200;SDS011;47065;52.898;6.992;2023-06-10T07:06:39;19.35;;;10.38;;
61200;SDS011;47065;52.898;6.992;2023-06-10T07:09:05;16.88;;;10.45;;
61200;SDS011;47065;52.898;6.992;2023-06-10T07:11:32;14.45;;;9.38;;
61200;SDS011;47065;52.898;6.992;2023-06-10T07:13:58;12.55;;;9.35;;
61200;SDS011;47065;52.898;6.992;2023-06-10T07:16:23;15.10;;;8.75;;
61200;SDS011;47065;52.898;6.992;2023-06-10T07:18:49;13.05;;;8.77;;
61200;SDS011;47065;52.898;6.992;2023-06-10T07:21:14;13.98;;;8.20;;
61200;SDS011;47065;52.898;6.992;2023-06-10T07:23:43;15.43;;;9.15;;
61200;SDS011;47065;52.898;6.992;2023-06-10T07:26:10;12.38;;;8.45;;
61200;SDS011;47065;52.898;6.992;2023-06-10T07:28:36;14.05;;;8.43;;
61200;SDS011;47065;52.898;6.992;2023-06-10T07:31:02;10.00;;;7.05;;
61200;SDS011;47065;52.898;6.992;2023-06-10T07:33:28;13.30;;;7.75;;
61200;SDS011;47065;52.898;6.992;2023-06-10T07:35:54;10.93;;;6.55;;
61200;SDS011;47065;52.898;6.992;2023-06-10T07:38:20;12.25;;;6.90;;
61200;SDS011;47065;52.898;6.992;2023-06-10T07:40:45;11.43;;;7.10;;
61200;SDS011;47065;52.898;6.992;2023-06-10T07:43:11;10.88;;;6.57;;
61200;SDS011;47065;52.898;6.992;2023-06-10T07:45:39;11.25;;;6.72;;
61200;SDS011;47065;52.898;6.992;2023-06-10T07:48:05;13.52;;;6.75;;
61200;SDS011;47065;52.898;6.992;2023-06-10T07:50:31;9.70;;;5.85;;
61200;SDS011;47065;52.898;6.992;2023-06-10T07:52:57;10.48;;;5.85;;
61200;SDS011;47065;52.898;6.992;2023-06-10T07:55:22;12.07;;;6.03;;
61200;SDS011;47065;52.898;6.992;2023-06-10T07:57:50;6.35;;;4.97;;
61200;SDS011;47065;52.898;6.992;2023-06-10T08:00:17;12.13;;;5.35;;
61200;SDS011;47065;52.898;6.992;2023-06-10T08:02:43;13.20;;;6.10;;
61200;SDS011;47065;52.898;6.992;2023-06-10T08:05:08;9.45;;;6.15;;
61200;SDS011;47065;52.898;6.992;2023-06-10T08:07:34;11.90;;;6.07;;
61200;SDS011;47065;52.898;6.992;2023-06-10T08:10:00;11.55;;;5.30;;
61200;SDS011;47065;52.898;6.992;2023-06-10T08:12:27;16.52;;;6.55;;
61200;SDS011;47065;52.898;6.992;2023-06-10T08:14:52;12.52;;;5.93;;
61200;SDS011;47065;52.898;6.992;2023-06-10T08:17:18;8.05;;;4.85;;
61200;SDS011;47065;52.898;6.992;2023-06-10T08:19:44;8.88;;;5.18;;
61200;SDS011;47065;52.898;6.992;2023-06-10T08:22:10;11.40;;;5.47;;
61200;SDS011;47065;52.898;6.992;2023-06-10T08:24:35;9.45;;;5.15;;
61200;SDS011;47065;52.898;6.992;2023-06-10T08:27:01;8.80;;;5.10;;
61200;SDS011;47065;52.898;6.992;2023-06-10T08:29:32;9.23;;;5.57;;
61200;SDS011;47065;52.898;6.992;2023-06-10T08:31:58;10.05;;;4.50;;
61200;SDS011;47065;52.898;6.992;2023-06-10T08:34:24;7.07;;;5.32;;
61200;SDS011;47065;52.898;6.992;2023-06-10T08:36:51;7.43;;;4.53;;
61200;SDS011;47065;52.898;6.992;2023-06-10T08:39:18;12.57;;;4.45;;
61200;SDS011;47065;52.898;6.992;2023-06-10T08:41:46;9.50;;;4.15;;
61200;SDS011;47065;52.898;6.992;2023-06-10T08:44:22;9.88;;;5.30;;
61200;SDS011;47065;52.898;6.992;2023-06-10T08:47:13;8.32;;;4.47;;
61200;SDS011;47065;52.898;6.992;2023-06-10T08:49:45;5.90;;;4.03;;
61200;SDS011;47065;52.898;6.992;2023-06-10T08:52:20;10.63;;;3.92;;
61200;SDS011;47065;52.898;6.992;2023-06-10T08:54:54;6.82;;;4.00;;
61200;SDS011;47065;52.898;6.992;2023-06-10T08:57:30;9.52;;;3.97;;
61200;SDS011;47065;52.898;6.992;2023-06-10T08:59:57;8.10;;;4.10;;
61200;SDS011;47065;52.898;6.992;2023-06-10T09:02:25;4.22;;;3.40;;
61200;SDS011;47065;52.898;6.992;2023-06-10T09:04:58;6.82;;;3.55;;
61200;SDS011;47065;52.898;6.992;2023-06-10T09:07:34;5.70;;;3.28;;
61200;SDS011;47065;52.898;6.992;2023-06-10T09:10:04;5.45;;;3.92;;
61200;SDS011;47065;52.898;6.992;2023-06-10T09:12:35;4.93;;;3.42;;
61200;SDS011;47065;52.898;6.992;2023-06-10T09:15:06;7.20;;;3.75;;
61200;SDS011;47065;52.898;6.992;2023-06-10T09:17:53;4.97;;;3.03;;
61200;SDS011;47065;52.898;6.992;2023-06-10T09:20:41;3.95;;;2.92;;
61200;SDS011;47065;52.898;6.992;2023-06-10T09:23:08;3.38;;;2.72;;
61200;SDS011;47065;52.898;6.992;2023-06-10T09:25:37;4.88;;;2.67;;
61200;SDS011;47065;52.898;6.992;2023-06-10T09:28:12;6.60;;;3.10;;
61200;SDS011;47065;52.898;6.992;2023-06-10T09:30:41;4.40;;;2.83;;
61200;SDS011;47065;52.898;6.992;2023-06-10T09:33:10;4.00;;;3.40;;
61200;SDS011;47065;52.898;6.992;2023-06-10T09:35:44;5.05;;;2.92;;
61200;SDS011;47065;52.898;6.992;2023-06-10T09:38:11;6.38;;;3.70;;
61200;SDS011;47065;52.898;6.992;2023-06-10T09:40:52;6.50;;;3.50;;
61200;SDS011;47065;52.898;6.992;2023-06-10T09:43:18;3.53;;;3.22;;
61200;SDS011;47065;52.898;6.992;2023-06-10T09:45:47;6.15;;;3.50;;
61200;SDS011;47065;52.898;6.992;2023-06-10T09:48:13;5.75;;;3.88;;
61200;SDS011;47065;52.898;6.992;2023-06-10T09:50:45;6.13;;;3.47;;
61200;SDS011;47065;52.898;6.992;2023-06-10T09:53:11;3.38;;;3.08;;
61200;SDS011;47065;52.898;6.992;2023-06-10T09:55:37;3.60;;;3.13;;
61200;SDS011;47065;52.898;6.992;2023-06-10T09:58:04;3.92;;;2.70;;
61200;SDS011;47065;52.898;6.992;2023-06-10T10:00:31;7.00;;;2.90;;
61200;SDS011;47065;52.898;6.992;2023-06-10T10:03:01;6.15;;;3.05;;
61200;SDS011;47065;52.898;6.992;2023-06-10T10:05:27;5.18;;;3.58;;
61200;SDS011;47065;52.898;6.992;2023-06-10T10:07:53;4.72;;;2.65;;
61200;SDS011;47065;52.898;6.992;2023-06-10T10:10:21;6.03;;;2.90;;
61200;SDS011;47065;52.898;6.992;2023-06-10T10:12:47;4.20;;;2.55;;
61200;SDS011;47065;52.898;6.992;2023-06-10T10:15:16;2.90;;;2.58;;
61200;SDS011;47065;52.898;6.992;2023-06-10T10:17:52;5.47;;;2.45;;
61200;SDS011;47065;52.898;6.992;2023-06-10T10:20:22;4.75;;;2.67;;
61200;SDS011;47065;52.898;6.992;2023-06-10T10:22:52;3.53;;;3.22;;
61200;SDS011;47065;52.898;6.992;2023-06-10T10:25:23;5.53;;;3.15;;
61200;SDS011;47065;52.898;6.992;2023-06-10T10:27:59;3.92;;;2.95;;
61200;SDS011;47065;52.898;6.992;2023-06-10T10:30:37;4.68;;;2.30;;
61200;SDS011;47065;52.898;6.992;2023-06-10T10:33:54;4.03;;;2.85;;
61200;SDS011;47065;52.898;6.992;2023-06-10T10:36:13;5.03;;;2.30;;
61200;SDS011;47065;52.898;6.992;2023-06-10T10:38:39;4.20;;;2.78;;
61200;SDS011;47065;52.898;6.992;2023-06-10T10:41:06;5.00;;;2.50;;
61200;SDS011;47065;52.898;6.992;2023-06-10T10:43:33;3.20;;;2.35;;
61200;SDS011;47065;52.898;6.992;2023-06-10T10:46:00;3.42;;;3.13;;
61200;SDS011;47065;52.898;6.992;2023-06-10T10:48:27;4.25;;;3.10;;
61200;SDS011;47065;52.898;6.992;2023-06-10T10:51:01;3.90;;;2.88;;
61200;SDS011;47065;52.898;6.992;2023-06-10T10:53:27;4.88;;;2.25;;
61200;SDS011;47065;52.898;6.992;2023-06-10T10:56:14;3.78;;;2.53;;
61200;SDS011;47065;52.898;6.992;2023-06-10T10:58:42;4.50;;;2.38;;
61200;SDS011;47065;52.898;6.992;2023-06-10T11:01:28;4.45;;;2.70;;
61200;SDS011;47065;52.898;6.992;2023-06-10T11:04:11;3.63;;;2.60;;
61200;SDS011;47065;52.898;6.992;2023-06-10T11:06:37;6.07;;;2.88;;
61200;SDS011;47065;52.898;6.992;2023-06-10T11:09:24;6.95;;;2.97;;
61200;SDS011;47065;52.898;6.992;2023-06-10T11:11:58;3.13;;;2.42;;
61200;SDS011;47065;52.898;6.992;2023-06-10T11:14:28;4.80;;;2.70;;
61200;SDS011;47065;52.898;6.992;2023-06-10T11:16:58;5.47;;;2.95;;
61200;SDS011;47065;52.898;6.992;2023-06-10T11:19:37;3.65;;;1.95;;
61200;SDS011;47065;52.898;6.992;2023-06-10T11:22:06;5.70;;;3.13;;
61200;SDS011;47065;52.898;6.992;2023-06-10T11:24:32;6.15;;;3.13;;
61200;SDS011;47065;52.898;6.992;2023-06-10T11:29:57;3.05;;;2.75;;
61200;SDS011;47065;52.898;6.992;2023-06-10T11:32:29;8.20;;;2.88;;
61200;SDS011;47065;52.898;6.992;2023-06-10T11:34:56;3.85;;;2.35;;
61200;SDS011;47065;52.898;6.992;2023-06-10T11:37:23;4.80;;;2.70;;
61200;SDS011;47065;52.898;6.992;2023-06-10T11:39:55;2.25;;;1.83;;
61200;SDS011;47065;52.898;6.992;2023-06-10T11:42:23;4.70;;;2.63;;
61200;SDS011;47065;52.898;6.992;2023-06-10T11:44:49;2.88;;;2.63;;
61200;SDS011;47065;52.898;6.992;2023-06-10T11:47:16;4.68;;;2.80;;
61200;SDS011;47065;52.898;6.992;2023-06-10T11:49:42;5.20;;;1.88;;
61200;SDS011;47065;52.898;6.992;2023-06-10T11:52:08;3.83;;;2.88;;
61200;SDS011;47065;52.898;6.992;2023-06-10T11:54:33;3.40;;;2.58;;
61200;SDS011;47065;52.898;6.992;2023-06-10T11:56:59;2.30;;;1.73;;
61200;SDS011;47065;52.898;6.992;2023-06-10T11:59:28;2.97;;;1.88;;
61200;SDS011;47065;52.898;6.992;2023-06-10T12:01:55;3.90;;;2.20;;
61200;SDS011;47065;52.898;6.992;2023-06-10T12:04:24;2.38;;;1.88;;
61200;SDS011;47065;52.898;6.992;2023-06-10T12:06:51;4.85;;;2.85;;
61200;SDS011;47065;52.898;6.992;2023-06-10T12:09:28;3.97;;;2.22;;
61200;SDS011;47065;52.898;6.992;2023-06-10T12:12:02;6.05;;;2.70;;
61200;SDS011;47065;52.898;6.992;2023-06-10T12:17:23;2.33;;;1.77;;
61200;SDS011;47065;52.898;6.992;2023-06-10T12:19:55;5.13;;;2.63;;
61200;SDS011;47065;52.898;6.992;2023-06-10T12:22:21;5.53;;;2.33;;
61200;SDS011;47065;52.898;6.992;2023-06-10T12:24:59;4.88;;;2.67;;
61200;SDS011;47065;52.898;6.992;2023-06-10T12:27:27;5.20;;;2.28;;
61200;SDS011;47065;52.898;6.992;2023-06-10T12:29:54;4.72;;;2.20;;
61200;SDS011;47065;52.898;6.992;2023-06-10T12:32:20;3.33;;;1.65;;
61200;SDS011;47065;52.898;6.992;2023-06-10T12:35:01;2.97;;;1.83;;
61200;SDS011;47065;52.898;6.992;2023-06-10T12:37:29;2.50;;;1.88;;
61200;SDS011;47065;52.898;6.992;2023-06-10T12:39:55;2.88;;;1.98;;
61200;SDS011;47065;52.898;6.992;2023-06-10T12:42:24;1.88;;;1.77;;
61200;SDS011;47065;52.898;6.992;2023-06-10T12:44:53;4.70;;;2.30;;
61200;SDS011;47065;52.898;6.992;2023-06-10T12:47:20;2.58;;;2.03;;
61200;SDS011;47065;52.898;6.992;2023-06-10T12:49:53;3.05;;;2.15;;
61200;SDS011;47065;52.898;6.992;2023-06-10T12:52:19;3.28;;;1.90;;
61200;SDS011;47065;52.898;6.992;2023-06-10T12:54:45;3.65;;;2.58;;
61200;SDS011;47065;52.898;6.992;2023-06-10T12:57:10;2.63;;;1.80;;
61200;SDS011;47065;52.898;6.992;2023-06-10T12:59:36;2.53;;;2.13;;
61200;SDS011;47065;52.898;6.992;2023-06-10T13:02:02;5.55;;;1.90;;
61200;SDS011;47065;52.898;6.992;2023-06-10T13:04:28;2.72;;;1.75;;
61200;SDS011;47065;52.898;6.992;2023-06-10T13:06:53;2.20;;;1.77;;
61200;SDS011;47065;52.898;6.992;2023-06-10T13:09:19;3.20;;;2.08;;
61200;SDS011;47065;52.898;6.992;2023-06-10T13:11:45;4.15;;;1.65;;
61200;SDS011;47065;52.898;6.992;2023-06-10T13:14:10;3.88;;;1.90;;
61200;SDS011;47065;52.898;6.992;2023-06-10T13:16:36;3.67;;;1.95;;
61200;SDS011;47065;52.898;6.992;2023-06-10T13:19:03;2.53;;;2.30;;
61200;SDS011;47065;52.898;6.992;2023-06-10T13:21:30;3.05;;;1.80;;
61200;SDS011;47065;52.898;6.992;2023-06-10T13:23:57;3.38;;;1.98;;
61200;SDS011;47065;52.898;6.992;2023-06-10T13:26:22;2.50;;;2.30;;
61200;SDS011;47065;52.898;6.992;2023-06-10T13:28:48;4.18;;;2.45;;
61200;SDS011;47065;52.898;6.992;2023-06-10T13:31:14;4.07;;;2.40;;
61200;SDS011;47065;52.898;6.992;2023-06-10T13:33:40;8.63;;;2.80;;
61200;SDS011;47065;52.898;6.992;2023-06-10T13:36:08;4.60;;;2.20;;
61200;SDS011;47065;52.898;6.992;2023-06-10T13:38:34;8.05;;;2.70;;
61200;SDS011;47065;52.898;6.992;2023-06-10T13:40:59;3.75;;;2.40;;
61200;SDS011;47065;52.898;6.992;2023-06-10T13:43:26;6.82;;;2.53;;
61200;SDS011;47065;52.898;6.992;2023-06-10T13:45:51;8.65;;;2.30;;
61200;SDS011;47065;52.898;6.992;2023-06-10T13:48:17;6.97;;;2.25;;
61200;SDS011;47065;52.898;6.992;2023-06-10T13:50:43;5.35;;;2.58;;
61200;SDS011;47065;52.898;6.992;2023-06-10T13:53:10;3.58;;;2.17;;
61200;SDS011;47065;52.898;6.992;2023-06-10T13:55:38;4.22;;;2.45;;
61200;SDS011;47065;52.898;6.992;2023-06-10T13:58:03;2.50;;;2.00;;
61200;SDS011;47065;52.898;6.992;2023-06-10T14:00:30;5.93;;;2.30;;
61200;SDS011;47065;52.898;6.992;2023-06-10T14:02:56;2.70;;;2.05;;
61200;SDS011;47065;52.898;6.992;2023-06-10T14:05:22;3.25;;;2.20;;
61200;SDS011;47065;52.898;6.992;2023-06-10T14:07:47;2.60;;;2.30;;
61200;SDS011;47065;52.898;6.992;2023-06-10T14:10:13;2.78;;;2.00;;
61200;SDS011;47065;52.898;6.992;2023-06-10T14:12:38;5.55;;;2.40;;
61200;SDS011;47065;52.898;6.992;2023-06-10T14:15:04;3.13;;;2.30;;
61200;SDS011;47065;52.898;6.992;2023-06-10T14:17:30;2.83;;;2.22;;
61200;SDS011;47065;52.898;6.992;2023-06-10T14:19:56;5.13;;;2.47;;
61200;SDS011;47065;52.898;6.992;2023-06-10T14:22:21;2.55;;;2.35;;
61200;SDS011;47065;52.898;6.992;2023-06-10T14:24:47;3.00;;;2.42;;
61200;SDS011;47065;52.898;6.992;2023-06-10T14:27:13;2.78;;;2.15;;
61200;SDS011;47065;52.898;6.992;2023-06-10T14:29:38;3.30;;;2.55;;
61200;SDS011;47065;52.898;6.992;2023-06-10T14:32:04;2.08;;;1.90;;
61200;SDS011;47065;52.898;6.992;2023-06-10T14:34:30;3.38;;;2.40;;
61200;SDS011;47065;52.898;6.992;2023-06-10T14:36:58;3.25;;;2.10;;
61200;SDS011;47065;52.898;6.992;2023-06-10T14:39:25;3.30;;;2.38;;
61200;SDS011;47065;52.898;6.992;2023-06-10T14:41:51;3.40;;;2.17;;
61200;SDS011;47065;52.898;6.992;2023-06-10T14:44:19;4.30;;;2.00;;
61200;SDS011;47065;52.898;6.992;2023-06-10T14:46:44;2.30;;;2.10;;
61200;SDS011;47065;52.898;6.992;2023-06-10T14:49:10;2.65;;;2.20;;
61200;SDS011;47065;52.898;6.992;2023-06-10T14:51:36;6.35;;;2.63;;
61200;SDS011;47065;52.898;6.992;2023-06-10T14:54:01;4.53;;;2.50;;